Jacquet River, Canada
Current Conditions -  °F | °C
As of 11:00 AM on Friday 24 Oct 2014 (Local Time) from CZBF Reporting Station
Light Rain Light Rain  
Wind Chill: 39°   Ceiling: 1700
Heat Index: 43°   Visibility: 8mi
Dew Point: 34°   Wind: 6mph
Humidity: 70%   Direction: 50°NE
Pressure: 29.86"   Gusts: NA
Location:  47.92°N, 66°W
Report Text: CZBF 241400Z 05005KT 8SM -RA OVC017 06/01 A2986 RMK NS8 SLP112
Loading
Personal Weather Stations






























Interactive Weather Map
Tropical Storm Tracking
New forecast layout! Learn more

10-Day Weather Forecast

Advertisements
Track Severe Weather on mobile